Cypress Inn, TN (38452)

6:32 AM CDT en Abril 26, 2018 (GMT -0500)
MF0158 | | Change Station
Aviso en curso: Flood Advisory Aviso activo: Flood Advisory

Alt 603 ft 34.90 °N, 87.80 °W | Updated 25 minutes ago

Lluvia
Lluvia
53.0 ° F
Sensación térmica 53.0 ° F
N
1.0
Viento Variable Viento desde SE
Gusts 7.0 mph

Hoy
Alta -- | Baja -- ° F
--% Posibilidad de precipitaciones
Ayer
Alta -- | Baja -- ° F
Precip. -- pul
Presión 29.86 pul
Visibilidad 6.0 Millas
Nubes Muy nublado 4000 ft
Nublado 5500 ft
Punto de rocío 51 ° F
Humedad 94%
Precipitaciones 0.64 pul
Espesor de la nieve No disponible.
6:05 AM 7:32 PM
Gibosa creciente, 86% visible
METAR KMSL 261053Z AUTO 06006KT 6SM RA BR BKN040 OVC055 13/11 A2986 RMK AO2 SLP109 P0003 T01280111
Presión 29.86 pul
Visibilidad 6.0 Millas
Nubes Muy nublado 4000 ft
Nublado 5500 ft
Punto de rocío 51 ° F
Humedad 94%
Precipitaciones 0.64 pul
Espesor de la nieve No disponible.
6:05 AM 7:32 PM
Gibosa creciente, 86% visible
METAR KMSL 261053Z AUTO 06006KT 6SM RA BR BKN040 OVC055 13/11 A2986 RMK AO2 SLP109 P0003 T01280111

Get Your Daily Forecast Email!

Thanks for signing up!

Be on the lookout for a verification email in your inbox.

You'll start receiving severe weather alerts in your inbox..

×

10-Day Weather Forecast

Almanac

Astronomía

Apr. 26, 2018 Salida Puesta
Hora real
Crepúsculo civil
Crepúsculo náutico
Crepúsculo astronómico
Luna
Horas de luz
Horas de luz
Tomorrow will be .
, % of the Moon is Illuminated

Extremos de hoy

Máximos del estado Bajos del estado

Community

WunderPhotos

Category 6

Welcome to Category 6. This is the collective home for Weather Underground's featured writeups by Dr. Jeff Masters (right), Bob Henson (left), Chris Burt, and other regular contributors.

Nearby

Calidad del aire

  Calidad del aire Índice AQ Contaminante
Not available.

Grosos de nieve

Estación Profundido Altura

Actividad de terremotos

Ciudad Distance Mag. Tiempo y dato
Magnitud mínima muestra es 2,5.

Temperaturas de aguas costeras

Lugar Temperatura

Stations

Estaciones meteorológicas cercanas

Ubicación de la estación Temp. Vientos helados Punto de rocío Humedad Viento Precip. Alt Actualizado Tipo
                   

Watches & Warnings

Flood Advisory
Issued: 11:27 PM CDT Apr. 25, 2018 – National Weather Service

The flood advisory continues for
the Tennessee River at Clifton
* until further notice.
* The latest estimated stage is 366 feet.
* Flood stage is 370.0 feet.
* At 366.0 feet... in Hardin County, water inundates low lying agricultural areas
and access roads in the Cobb farm area of Nance Bend, including senator Cobb
Road and colonel Hardin Road.
* At 365.0 feet... in Decatur County, low lying areas of the riverstone Marina
become inundated.